createdAt,value
2023-05-22T00:00:49.472Z,1099.00
2023-05-22T00:01:49.678Z,1097.00
2023-05-22T00:02:49.770Z,1102.00
2023-05-22T00:03:49.639Z,1103.00
2023-05-22T00:04:49.726Z,1089.00
2023-05-22T00:05:49.766Z,1087.00
2023-05-22T00:06:49.884Z,1089.00
2023-05-22T00:07:49.879Z,1075.00
2023-05-22T00:08:49.921Z,1082.00
2023-05-22T00:09:49.991Z,1092.00
2023-05-22T00:10:50.039Z,1075.00
2023-05-22T00:11:50.109Z,1071.00
2023-05-22T00:12:50.157Z,1078.00
2023-05-22T00:13:50.232Z,1078.00
2023-05-22T00:14:50.294Z,1077.00
2023-05-22T00:15:50.330Z,1076.00
2023-05-22T00:16:50.485Z,1063.00
2023-05-22T00:17:50.465Z,1069.00
2023-05-22T00:18:50.525Z,1068.00
2023-05-22T00:19:50.549Z,1079.00
2023-05-22T00:20:50.645Z,1068.00
2023-05-22T00:21:50.684Z,1072.00
2023-05-22T00:22:50.752Z,1065.00
2023-05-22T00:23:50.794Z,1065.00
2023-05-22T00:24:50.851Z,1063.00
2023-05-22T00:25:50.902Z,1071.00
2023-05-22T00:26:50.953Z,1072.00
2023-05-22T00:27:51.010Z,1066.00
2023-05-22T00:28:51.062Z,1050.00
2023-05-22T00:29:51.217Z,1056.00
2023-05-22T00:30:51.188Z,1063.00
2023-05-22T00:31:51.260Z,1061.00
2023-05-22T00:32:51.339Z,1059.00
2023-05-22T00:33:51.360Z,1066.00
2023-05-22T00:34:51.455Z,1043.00
2023-05-22T00:35:51.435Z,1052.00
2023-05-22T00:36:51.508Z,1052.00
2023-05-22T00:37:51.579Z,1049.00
2023-05-22T00:38:51.623Z,1056.00
2023-05-22T00:39:51.690Z,1050.00
2023-05-22T00:40:51.746Z,1039.00
2023-05-22T00:41:51.811Z,1053.00
2023-05-22T00:42:51.861Z,1042.00
2023-05-22T00:43:51.918Z,1040.00
2023-05-22T00:44:51.997Z,1052.00
2023-05-22T00:45:52.034Z,1054.00
2023-05-22T00:46:52.188Z,1048.00
2023-05-22T00:47:52.225Z,1037.00
2023-05-22T00:48:52.203Z,1046.00
2023-05-22T00:49:52.257Z,1047.00
2023-05-22T00:50:52.322Z,1052.00
2023-05-22T00:51:52.377Z,1050.00
2023-05-22T00:52:52.444Z,1047.00
2023-05-22T00:53:52.500Z,1041.00
2023-05-22T00:54:52.546Z,1034.00
2023-05-22T00:55:52.588Z,1024.00
2023-05-22T00:56:52.679Z,1027.00
2023-05-22T00:57:52.727Z,1024.00
2023-05-22T00:58:52.822Z,1029.00
2023-05-22T00:59:52.828Z,1021.00
2023-05-22T01:00:52.897Z,1023.00
2023-05-22T01:01:52.994Z,1024.00
2023-05-22T01:02:53.180Z,1015.00
2023-05-22T01:03:53.237Z,1022.00
2023-05-22T01:04:53.112Z,1026.00
2023-05-22T01:05:53.178Z,1022.00
2023-05-22T01:06:53.279Z,1017.00
2023-05-22T01:07:53.340Z,1020.00
2023-05-22T01:08:53.369Z,989.00
2023-05-22T01:09:53.432Z,1019.00
2023-05-22T01:10:53.494Z,1022.00
2023-05-22T01:11:53.550Z,1012.00
2023-05-22T01:12:53.580Z,1012.00
2023-05-22T01:13:53.644Z,1011.00
2023-05-22T01:14:54.687Z,999.00
2023-05-22T01:15:53.791Z,1003.00
2023-05-22T01:16:53.809Z,1011.00
2023-05-22T01:17:53.924Z,1000.00
2023-05-22T01:18:54.003Z,992.00
2023-05-22T01:19:54.093Z,1002.00
2023-05-22T01:20:54.069Z,1005.00
2023-05-22T01:21:54.108Z,1003.00
2023-05-22T01:22:54.162Z,995.00
2023-05-22T01:23:54.261Z,1005.00
2023-05-22T01:24:54.290Z,998.00
2023-05-22T01:25:54.346Z,991.00
2023-05-22T01:26:54.403Z,995.00
2023-05-22T01:27:54.466Z,960.00
2023-05-22T01:28:54.541Z,968.00
2023-05-22T01:29:54.574Z,944.00
2023-05-22T01:30:54.631Z,948.00
2023-05-22T01:31:54.719Z,974.00
2023-05-22T01:32:54.847Z,952.00
2023-05-22T01:33:55.124Z,966.00
2023-05-22T01:34:54.895Z,984.00
2023-05-22T01:35:54.923Z,961.00
2023-05-22T01:36:54.977Z,952.00
2023-05-22T01:37:55.041Z,969.00
2023-05-22T01:38:55.078Z,966.00
2023-05-22T01:39:55.124Z,961.00
2023-05-22T01:40:55.192Z,953.00
2023-05-22T01:41:55.268Z,959.00
2023-05-22T01:42:55.290Z,927.00
2023-05-22T01:43:55.383Z,931.00
2023-05-22T01:44:55.398Z,936.00
2023-05-22T01:45:55.475Z,937.00
2023-05-22T01:46:55.490Z,931.00
2023-05-22T01:47:55.583Z,940.00
2023-05-22T01:48:55.591Z,954.00
2023-05-22T01:49:55.661Z,937.00
2023-05-22T01:50:55.721Z,925.00
2023-05-22T01:51:55.740Z,925.00
2023-05-22T01:52:55.812Z,914.00
2023-05-22T01:53:55.863Z,923.00
2023-05-22T01:54:55.896Z,929.00
2023-05-22T01:55:55.999Z,921.00
2023-05-22T01:56:55.993Z,919.00
2023-05-22T01:57:56.055Z,925.00
2023-05-22T01:58:56.104Z,920.00
2023-05-22T01:59:56.153Z,910.00
2023-05-22T02:00:56.276Z,906.00
2023-05-22T02:01:56.285Z,903.00
2023-05-22T02:02:56.428Z,905.00
2023-05-22T02:03:56.384Z,916.00
2023-05-22T02:04:56.440Z,908.00
2023-05-22T02:05:56.525Z,924.00
2023-05-22T02:06:56.558Z,897.00
2023-05-22T02:07:56.631Z,905.00
2023-05-22T02:08:56.697Z,890.00
2023-05-22T02:09:56.742Z,906.00
2023-05-22T02:10:56.824Z,891.00
2023-05-22T02:11:56.870Z,914.00
2023-05-22T02:12:56.942Z,885.00
2023-05-22T02:13:56.964Z,902.00
2023-05-22T02:14:57.037Z,887.00
2023-05-22T02:15:57.093Z,887.00
2023-05-22T02:16:57.128Z,889.00
2023-05-22T02:17:57.241Z,893.00
2023-05-22T02:18:57.302Z,883.00
2023-05-22T02:19:57.324Z,902.00
2023-05-22T02:20:57.382Z,891.00
2023-05-22T02:21:57.453Z,878.00
2023-05-22T02:22:57.540Z,885.00
2023-05-22T02:23:57.557Z,892.00
2023-05-22T02:24:57.630Z,876.00
2023-05-22T02:25:57.690Z,876.00
2023-05-22T02:26:57.716Z,871.00
2023-05-22T02:27:57.785Z,866.00
2023-05-22T02:28:57.834Z,876.00
2023-05-22T02:29:57.861Z,861.00
2023-05-22T02:30:57.942Z,859.00
2023-05-22T02:31:57.959Z,856.00
2023-05-22T02:32:58.046Z,859.00
2023-05-22T02:33:58.067Z,866.00
2023-05-22T02:34:58.106Z,860.00
2023-05-22T02:35:58.139Z,869.00
2023-05-22T02:36:58.177Z,861.00
2023-05-22T02:37:58.229Z,843.00
2023-05-22T02:38:58.286Z,855.00
2023-05-22T02:39:58.372Z,866.00
2023-05-22T02:40:58.397Z,855.00
2023-05-22T02:41:58.500Z,859.00
2023-05-22T02:42:58.525Z,852.00
2023-05-22T02:43:58.577Z,847.00
2023-05-22T02:44:58.632Z,856.00
2023-05-22T02:45:58.693Z,854.00
2023-05-22T02:46:58.839Z,849.00
2023-05-22T02:47:58.867Z,837.00
2023-05-22T02:48:58.838Z,862.00
2023-05-22T02:49:58.903Z,842.00
2023-05-22T02:50:58.953Z,832.00
2023-05-22T02:51:59.005Z,837.00
2023-05-22T02:52:59.082Z,830.00
2023-05-22T02:53:59.111Z,853.00
2023-05-22T02:54:59.167Z,838.00
2023-05-22T02:55:59.222Z,851.00
2023-05-22T02:56:59.290Z,839.00
2023-05-22T02:57:59.336Z,839.00
2023-05-22T02:58:59.395Z,832.00
2023-05-22T02:59:59.469Z,840.00
2023-05-22T03:00:59.528Z,835.00
2023-05-22T03:01:59.605Z,837.00
2023-05-22T03:02:59.696Z,835.00
2023-05-22T03:03:59.689Z,828.00
2023-05-22T03:04:59.763Z,830.00
2023-05-22T03:05:59.793Z,825.00
2023-05-22T03:06:59.882Z,820.00
2023-05-22T03:07:59.910Z,847.00
2023-05-22T03:08:59.961Z,826.00
2023-05-22T03:10:00.022Z,822.00
2023-05-22T03:11:00.064Z,827.00
2023-05-22T03:12:00.122Z,810.00
2023-05-22T03:13:00.171Z,810.00
2023-05-22T03:14:00.230Z,822.00
2023-05-22T03:15:00.298Z,824.00
2023-05-22T03:16:00.424Z,804.00
2023-05-22T03:17:00.429Z,828.00
2023-05-22T03:18:00.469Z,811.00
2023-05-22T03:19:00.560Z,819.00
2023-05-22T03:20:00.562Z,813.00
2023-05-22T03:21:00.567Z,809.00
2023-05-22T03:22:00.616Z,801.00
2023-05-22T03:23:00.682Z,797.00
2023-05-22T03:24:00.725Z,799.00
2023-05-22T03:25:00.772Z,810.00
2023-05-22T03:26:00.798Z,803.00
2023-05-22T03:27:00.847Z,798.00
2023-05-22T03:28:00.909Z,810.00
2023-05-22T03:29:01.029Z,791.00
2023-05-22T03:30:01.022Z,799.00
2023-05-22T03:31:01.062Z,828.00
2023-05-22T03:32:01.121Z,808.00
2023-05-22T03:33:01.203Z,785.00
2023-05-22T03:34:01.425Z,805.00
2023-05-22T03:35:01.274Z,807.00
2023-05-22T03:36:01.360Z,806.00
2023-05-22T03:37:01.413Z,794.00
2023-05-22T03:38:01.436Z,795.00
2023-05-22T03:39:01.508Z,819.00
2023-05-22T03:40:01.547Z,803.00
2023-05-22T03:41:01.631Z,801.00
2023-05-22T03:42:01.678Z,803.00
2023-05-22T03:43:01.713Z,790.00
2023-05-22T03:44:01.782Z,794.00
2023-05-22T03:45:01.826Z,797.00
2023-05-22T03:46:01.886Z,797.00
2023-05-22T03:47:01.933Z,810.00
2023-05-22T03:48:02.031Z,805.00
2023-05-22T03:49:02.046Z,801.00
2023-05-22T03:50:02.108Z,794.00
2023-05-22T03:51:02.174Z,811.00
2023-05-22T03:52:02.194Z,795.00
2023-05-22T03:53:02.268Z,787.00
2023-05-22T03:54:02.328Z,790.00
2023-05-22T03:55:02.378Z,794.00
2023-05-22T03:56:02.423Z,787.00
2023-05-22T03:57:02.486Z,782.00
2023-05-22T03:58:02.524Z,793.00
2023-05-22T03:59:02.581Z,804.00
2023-05-22T04:00:02.627Z,802.00
2023-05-22T04:01:02.693Z,803.00
2023-05-22T04:02:02.773Z,809.00
2023-05-22T04:03:02.899Z,800.00
2023-05-22T04:04:02.850Z,796.00
2023-05-22T04:05:02.970Z,796.00
2023-05-22T04:06:02.979Z,783.00
2023-05-22T04:07:03.033Z,784.00
2023-05-22T04:08:03.061Z,795.00
2023-05-22T04:09:03.146Z,791.00
2023-05-22T04:10:03.202Z,792.00
2023-05-22T04:11:03.252Z,788.00
2023-05-22T04:12:03.296Z,797.00
2023-05-22T04:13:03.348Z,792.00
2023-05-22T04:14:03.390Z,799.00
2023-05-22T04:15:03.450Z,791.00
2023-05-22T04:16:03.565Z,791.00
2023-05-22T04:17:03.543Z,801.00
2023-05-22T04:18:03.664Z,794.00
2023-05-22T04:19:03.739Z,782.00
2023-05-22T04:20:03.711Z,801.00
2023-05-22T04:21:03.761Z,792.00
2023-05-22T04:22:03.823Z,812.00
2023-05-22T04:23:03.856Z,782.00
2023-05-22T04:24:03.930Z,779.00
2023-05-22T04:25:03.982Z,791.00
2023-05-22T04:26:04.029Z,802.00
2023-05-22T04:27:04.074Z,786.00
2023-05-22T04:28:04.237Z,782.00
2023-05-22T04:29:04.151Z,796.00
2023-05-22T04:30:04.228Z,815.00
2023-05-22T04:31:04.291Z,780.00
2023-05-22T04:32:04.327Z,774.00
2023-05-22T04:33:04.421Z,769.00
2023-05-22T04:34:04.422Z,777.00
2023-05-22T04:35:04.475Z,792.00
2023-05-22T04:36:04.541Z,779.00
2023-05-22T04:37:04.590Z,781.00
2023-05-22T04:38:04.666Z,778.00
2023-05-22T04:39:04.693Z,771.00
2023-05-22T04:40:04.762Z,776.00
2023-05-22T04:41:04.840Z,783.00
2023-05-22T04:42:04.899Z,783.00
2023-05-22T04:43:04.943Z,792.00
2023-05-22T04:44:04.978Z,787.00
2023-05-22T04:45:05.021Z,782.00
2023-05-22T04:46:05.100Z,783.00
2023-05-22T04:47:07.589Z,784.00
2023-05-22T04:48:05.363Z,774.00
2023-05-22T04:49:05.116Z,769.00
2023-05-22T04:50:05.106Z,766.00
2023-05-22T04:51:05.096Z,779.00
2023-05-22T04:52:05.099Z,769.00
2023-05-22T04:53:05.129Z,774.00
2023-05-22T04:54:05.091Z,780.00
2023-05-22T04:55:06.062Z,779.00
2023-05-22T04:56:05.093Z,782.00
2023-05-22T04:57:05.069Z,787.00
2023-05-22T04:58:05.050Z,774.00
2023-05-22T04:59:05.045Z,785.00
2023-05-22T05:00:05.072Z,777.00
2023-05-22T05:01:05.108Z,760.00
2023-05-22T05:02:05.060Z,758.00
2023-05-22T05:03:05.114Z,763.00
2023-05-22T05:04:05.079Z,769.00
2023-05-22T05:05:05.016Z,773.00
2023-05-22T05:06:05.022Z,760.00
2023-05-22T05:07:05.038Z,754.00
2023-05-22T05:08:05.033Z,762.00
2023-05-22T05:09:04.994Z,755.00
2023-05-22T05:10:04.983Z,766.00
2023-05-22T05:11:04.972Z,742.00
2023-05-22T05:12:04.964Z,762.00
2023-05-22T05:13:04.954Z,756.00
2023-05-22T05:14:04.960Z,765.00
2023-05-22T05:15:04.940Z,760.00
2023-05-22T05:16:04.941Z,758.00
2023-05-22T05:17:04.962Z,764.00
2023-05-22T05:18:05.130Z,763.00
2023-05-22T05:19:05.048Z,753.00
2023-05-22T05:20:05.118Z,753.00
2023-05-22T05:21:05.153Z,754.00
2023-05-22T05:22:05.236Z,742.00
2023-05-22T05:23:05.291Z,738.00
2023-05-22T05:24:05.344Z,742.00
2023-05-22T05:25:05.389Z,739.00
2023-05-22T05:26:05.463Z,722.00
2023-05-22T05:27:05.542Z,718.00
2023-05-22T05:28:05.815Z,702.00
2023-05-22T05:29:05.633Z,738.00
2023-05-22T05:30:05.667Z,739.00
2023-05-22T05:31:05.756Z,702.00
2023-05-22T05:32:05.834Z,681.00
2023-05-22T05:33:05.878Z,715.00
2023-05-22T05:34:05.896Z,651.00
2023-05-22T05:35:06.014Z,627.00
2023-05-22T05:36:05.953Z,634.00
2023-05-22T05:37:05.961Z,605.00
2023-05-22T05:38:06.061Z,589.00
2023-05-22T05:39:05.996Z,582.00
2023-05-22T05:40:06.074Z,569.00
2023-05-22T05:41:05.969Z,567.00
2023-05-22T05:42:06.009Z,561.00
2023-05-22T05:43:08.046Z,565.00
2023-05-22T05:44:05.996Z,567.00
2023-05-22T05:45:05.971Z,554.00
2023-05-22T05:46:06.010Z,540.00
2023-05-22T05:47:05.968Z,510.00
2023-05-22T05:48:05.979Z,504.00
2023-05-22T05:49:05.962Z,516.00
2023-05-22T05:50:06.039Z,540.00
2023-05-22T05:51:05.957Z,530.00
2023-05-22T05:52:05.935Z,534.00
2023-05-22T05:53:06.798Z,516.00
2023-05-22T05:54:05.985Z,539.00
2023-05-22T05:55:05.916Z,558.00
2023-05-22T05:56:05.915Z,560.00
2023-05-22T05:57:05.951Z,523.00
2023-05-22T05:58:06.287Z,506.00
2023-05-22T05:59:05.896Z,499.00
2023-05-22T06:00:05.961Z,510.00
2023-05-22T06:01:05.862Z,517.00
2023-05-22T06:02:05.854Z,501.00
2023-05-22T06:03:05.987Z,511.00
2023-05-22T06:04:05.893Z,501.00
2023-05-22T06:05:05.867Z,500.00
2023-05-22T06:06:05.843Z,501.00
2023-05-22T06:07:05.831Z,505.00
2023-05-22T06:08:05.834Z,546.00
2023-05-22T06:09:05.815Z,524.00
2023-05-22T06:10:05.821Z,519.00
2023-05-22T06:11:05.793Z,504.00
2023-05-22T06:12:05.804Z,500.00
2023-05-22T06:13:05.815Z,503.00
2023-05-22T06:14:05.806Z,501.00
2023-05-22T06:15:05.826Z,504.00
2023-05-22T06:16:06.705Z,506.00
2023-05-22T06:17:05.759Z,516.00
2023-05-22T06:18:05.878Z,532.00
2023-05-22T06:19:05.800Z,562.00
2023-05-22T06:20:05.757Z,502.00
2023-05-22T06:21:05.730Z,512.00
2023-05-22T06:22:05.734Z,517.00
2023-05-22T06:23:05.816Z,499.00
2023-05-22T06:24:05.722Z,502.00
2023-05-22T06:25:05.721Z,496.00
2023-05-22T06:26:05.707Z,521.00
2023-05-22T06:27:05.736Z,503.00
2023-05-22T06:28:05.702Z,515.00
2023-05-22T06:29:05.706Z,508.00
2023-05-22T06:30:05.740Z,512.00
2023-05-22T06:31:05.817Z,505.00
2023-05-22T06:32:05.880Z,500.00
2023-05-22T06:33:05.997Z,502.00
2023-05-22T06:34:05.957Z,500.00
2023-05-22T06:35:05.990Z,537.00
2023-05-22T06:36:05.994Z,558.00
2023-05-22T06:37:06.044Z,502.00
2023-05-22T06:38:06.128Z,500.00
2023-05-22T06:39:06.084Z,513.00
2023-05-22T06:40:06.077Z,525.00
2023-05-22T06:41:06.148Z,566.00
2023-05-22T06:42:06.265Z,587.00
2023-05-22T06:43:06.300Z,608.00
2023-05-22T06:44:06.397Z,582.00
2023-05-22T06:45:06.392Z,581.00
2023-05-22T06:46:06.461Z,562.00
2023-05-22T06:47:06.825Z,568.00
2023-05-22T06:48:06.848Z,578.00
2023-05-22T06:49:06.517Z,572.00
2023-05-22T06:50:06.614Z,588.00
2023-05-22T06:51:06.623Z,614.00
2023-05-22T06:52:06.671Z,611.00
2023-05-22T06:53:06.725Z,606.00
2023-05-22T06:54:06.924Z,568.00
2023-05-22T06:55:06.845Z,538.00
2023-05-22T06:56:06.872Z,510.00
2023-05-22T06:57:06.954Z,541.00
2023-05-22T06:58:06.969Z,545.00
2023-05-22T06:59:07.038Z,577.00
2023-05-22T07:00:07.110Z,627.00
2023-05-22T07:01:07.183Z,648.00
2023-05-22T07:02:07.281Z,629.00
2023-05-22T07:03:07.334Z,627.00
2023-05-22T07:04:07.414Z,634.00
2023-05-22T07:05:07.483Z,600.00
2023-05-22T07:06:07.467Z,624.00
2023-05-22T07:07:07.537Z,639.00
2023-05-22T07:08:07.548Z,646.00
2023-05-22T07:09:07.690Z,628.00
2023-05-22T07:10:07.687Z,608.00
2023-05-22T07:11:07.711Z,607.00
2023-05-22T07:12:07.826Z,642.00
2023-05-22T07:13:07.798Z,662.00
2023-05-22T07:14:07.827Z,749.00
2023-05-22T07:15:07.882Z,758.00
2023-05-22T07:16:07.936Z,795.00
2023-05-22T07:17:07.976Z,853.00
2023-05-22T07:18:08.172Z,879.00
2023-05-22T07:19:08.111Z,916.00
2023-05-22T07:20:08.148Z,930.00
2023-05-22T07:21:08.268Z,864.00
2023-05-22T07:22:08.224Z,735.00
2023-05-22T07:23:08.334Z,632.00
2023-05-22T07:24:08.307Z,585.00
2023-05-22T07:25:08.427Z,557.00
2023-05-22T07:26:08.489Z,558.00
2023-05-22T07:27:08.480Z,556.00
2023-05-22T07:28:08.624Z,574.00
2023-05-22T07:29:08.571Z,572.00
2023-05-22T07:30:08.620Z,560.00
2023-05-22T07:31:08.732Z,614.00
2023-05-22T07:32:08.779Z,797.00
2023-05-22T07:33:08.949Z,1095.00
2023-05-22T07:34:08.877Z,1135.00
2023-05-22T07:35:08.898Z,1197.00
2023-05-22T07:36:08.944Z,1182.00
2023-05-22T07:37:08.949Z,1333.00
2023-05-22T07:38:09.342Z,1396.00
2023-05-22T07:39:09.005Z,1371.00
2023-05-22T07:40:09.018Z,1453.00
2023-05-22T07:41:09.035Z,1485.00
2023-05-22T07:42:09.272Z,1520.00
2023-05-22T07:43:09.319Z,1576.00
2023-05-22T07:44:09.125Z,1594.00
2023-05-22T07:45:09.193Z,1618.00
2023-05-22T07:46:09.238Z,1665.00
2023-05-22T07:47:09.187Z,1673.00
2023-05-22T07:48:09.271Z,1686.00
2023-05-22T07:49:09.266Z,1671.00
2023-05-22T07:50:09.314Z,1630.00
2023-05-22T07:51:09.289Z,1602.00
2023-05-22T07:52:09.288Z,1623.00
2023-05-22T07:53:09.355Z,1592.00
2023-05-22T07:54:09.356Z,1525.00
2023-05-22T07:55:09.417Z,1287.00
2023-05-22T07:56:09.426Z,1216.00
2023-05-22T07:57:09.469Z,1211.00
2023-05-22T07:58:09.556Z,1298.00
2023-05-22T07:59:09.570Z,1323.00
2023-05-22T08:00:09.589Z,1400.00
2023-05-22T08:01:09.774Z,1435.00
2023-05-22T08:02:09.656Z,1389.00
2023-05-22T08:03:09.750Z,1411.00
2023-05-22T08:04:09.802Z,1501.00
2023-05-22T08:05:09.823Z,1505.00
2023-05-22T08:06:10.063Z,1551.00
2023-05-22T08:07:09.760Z,1533.00
2023-05-22T08:08:09.797Z,1601.00
2023-05-22T08:09:09.843Z,1606.00
2023-05-22T08:10:09.891Z,1607.00
2023-05-22T08:11:10.105Z,1613.00
2023-05-22T08:12:09.921Z,1629.00
2023-05-22T08:13:09.940Z,1619.00
2023-05-22T08:14:10.074Z,1589.00
2023-05-22T08:15:09.992Z,1723.00
2023-05-22T08:16:10.028Z,1615.00
2023-05-22T08:17:10.071Z,1429.00
2023-05-22T08:18:10.146Z,1412.00
2023-05-22T08:19:10.229Z,1201.00
2023-05-22T08:20:10.329Z,933.00
2023-05-22T08:21:10.236Z,644.00
2023-05-22T08:22:10.245Z,588.00
2023-05-22T08:23:10.264Z,627.00
2023-05-22T08:24:10.296Z,901.00
2023-05-22T08:25:10.339Z,1097.00
2023-05-22T08:26:10.393Z,1454.00
2023-05-22T08:27:10.382Z,1570.00
2023-05-22T08:28:10.855Z,1708.00
2023-05-22T08:29:10.853Z,1648.00
2023-05-22T08:30:10.450Z,1654.00
2023-05-22T08:31:10.448Z,1656.00
2023-05-22T08:32:10.451Z,1687.00
2023-05-22T08:33:10.462Z,1701.00
2023-05-22T08:34:10.422Z,1647.00
2023-05-22T08:35:10.412Z,1550.00
2023-05-22T08:36:10.422Z,1482.00
2023-05-22T08:37:10.460Z,1461.00
2023-05-22T08:38:10.848Z,1510.00
2023-05-22T08:39:10.880Z,1437.00
2023-05-22T08:40:10.521Z,1098.00
2023-05-22T08:41:10.583Z,1361.00
2023-05-22T08:42:10.586Z,1399.00
2023-05-22T08:43:10.596Z,1548.00
2023-05-22T08:44:10.574Z,1627.00
2023-05-22T08:45:10.613Z,1729.00
2023-05-22T08:46:10.691Z,1648.00
2023-05-22T08:47:10.703Z,1764.00
2023-05-22T08:48:10.867Z,1800.00
2023-05-22T08:49:10.852Z,1705.00
2023-05-22T08:50:10.616Z,1710.00
2023-05-22T08:51:10.670Z,1700.00
2023-05-22T08:52:10.712Z,1665.00
2023-05-22T08:53:10.763Z,1653.00
2023-05-22T08:54:10.853Z,1661.00
2023-05-22T08:55:10.865Z,1723.00
2023-05-22T08:56:10.917Z,1780.00
2023-05-22T08:57:11.004Z,1778.00
2023-05-22T08:58:11.045Z,1696.00
2023-05-22T08:59:11.079Z,1696.00
2023-05-22T09:00:11.108Z,1753.00
2023-05-22T09:01:11.221Z,1761.00
2023-05-22T09:02:11.245Z,1780.00
2023-05-22T09:03:11.327Z,1823.00
2023-05-22T09:04:11.458Z,1894.00
2023-05-22T09:05:11.386Z,1946.00
2023-05-22T09:06:11.488Z,2048.00
2023-05-22T09:07:11.460Z,2010.00
2023-05-22T09:08:19.752Z,1985.00
2023-05-22T09:09:12.519Z,1978.00
2023-05-22T09:10:11.510Z,1935.00
2023-05-22T09:11:11.492Z,1921.00
2023-05-22T09:12:11.514Z,1928.00
2023-05-22T09:13:11.538Z,1927.00
2023-05-22T09:14:11.480Z,1883.00
2023-05-22T09:15:11.475Z,1886.00
2023-05-22T09:16:11.648Z,1938.00
2023-05-22T09:17:11.655Z,1965.00
2023-05-22T09:18:11.501Z,1964.00
2023-05-22T09:19:11.509Z,1941.00
2023-05-22T09:20:11.545Z,1978.00
2023-05-22T09:21:25.688Z,2054.00
2023-05-22T09:22:12.549Z,2056.00
2023-05-22T09:23:11.560Z,2061.00
2023-05-22T09:24:11.551Z,2032.00
2023-05-22T09:25:11.567Z,1979.00
2023-05-22T09:26:11.540Z,1946.00
2023-05-22T09:27:11.550Z,1902.00
2023-05-22T09:28:11.528Z,1932.00
2023-05-22T09:29:11.535Z,1618.00
2023-05-22T09:30:11.501Z,1428.00
2023-05-22T09:31:11.522Z,1429.00
2023-05-22T09:32:11.543Z,1460.00
2023-05-22T09:33:11.887Z,1708.00
2023-05-22T09:34:11.651Z,1727.00
2023-05-22T09:35:11.713Z,1792.00
2023-05-22T09:36:11.740Z,1756.00
2023-05-22T09:37:11.771Z,1797.00
2023-05-22T09:38:12.444Z,1807.00
2023-05-22T09:39:11.816Z,1853.00
2023-05-22T09:40:11.818Z,1792.00
2023-05-22T09:41:11.824Z,1915.00
2023-05-22T09:42:11.857Z,2000.00
2023-05-22T09:43:12.450Z,1965.00
2023-05-22T09:44:11.908Z,1925.00
2023-05-22T09:45:11.936Z,2018.00
2023-05-22T09:46:12.004Z,2095.00
2023-05-22T09:47:12.016Z,2069.00
2023-05-22T09:48:12.094Z,2030.00
2023-05-22T09:49:15.714Z,1959.00
2023-05-22T09:50:12.124Z,1960.00
2023-05-22T09:51:12.055Z,1857.00
2023-05-22T09:52:12.057Z,1838.00
2023-05-22T09:53:12.032Z,1839.00
2023-05-22T09:54:12.055Z,1875.00
2023-05-22T09:55:12.025Z,1880.00
2023-05-22T09:56:12.010Z,1993.00
2023-05-22T09:57:12.006Z,2000.00
2023-05-22T09:58:12.060Z,1922.00
2023-05-22T09:59:12.002Z,1872.00
2023-05-22T10:00:12.009Z,1896.00
2023-05-22T10:01:12.011Z,1949.00
2023-05-22T10:02:11.992Z,1968.00
2023-05-22T10:03:11.984Z,2059.00
2023-05-22T10:04:13.032Z,2094.00
2023-05-22T10:05:11.959Z,2078.00
2023-05-22T10:06:11.973Z,2040.00
2023-05-22T10:07:11.970Z,2055.00
2023-05-22T10:08:11.954Z,2072.00
2023-05-22T10:09:11.926Z,2065.00
2023-05-22T10:10:11.950Z,2070.00
2023-05-22T10:11:11.963Z,2058.00
2023-05-22T10:12:11.905Z,2085.00
2023-05-22T10:13:11.890Z,2095.00
2023-05-22T10:14:11.898Z,2133.00
2023-05-22T10:15:11.901Z,2171.00
2023-05-22T10:16:11.975Z,2166.00
2023-05-22T10:17:11.863Z,2159.00
2023-05-22T10:18:11.906Z,2103.00
2023-05-22T10:19:11.912Z,2081.00
2023-05-22T10:20:11.859Z,2127.00
2023-05-22T10:21:11.878Z,2105.00
2023-05-22T10:22:11.988Z,2100.00
2023-05-22T10:23:11.939Z,2136.00
2023-05-22T10:24:13.319Z,2103.00
2023-05-22T10:25:11.983Z,2083.00
2023-05-22T10:26:11.999Z,2037.00
2023-05-22T10:27:12.035Z,2030.00
2023-05-22T10:28:12.064Z,1854.00
2023-05-22T10:29:12.414Z,1663.00
2023-05-22T10:30:12.101Z,1656.00
2023-05-22T10:31:12.163Z,1649.00
2023-05-22T10:32:12.132Z,1649.00
2023-05-22T10:33:12.286Z,1718.00
2023-05-22T10:34:12.404Z,1717.00
2023-05-22T10:35:12.132Z,1641.00
2023-05-22T10:36:12.135Z,1543.00
2023-05-22T10:37:17.367Z,1543.00
2023-05-22T10:38:13.220Z,1416.00
2023-05-22T10:39:12.133Z,1398.00
2023-05-22T10:40:12.121Z,1331.00
2023-05-22T10:41:12.117Z,1346.00
2023-05-22T10:42:12.136Z,1409.00
2023-05-22T10:43:12.113Z,1477.00
2023-05-22T10:44:12.122Z,1575.00
2023-05-22T10:45:12.094Z,1666.00
2023-05-22T10:46:12.172Z,1593.00
2023-05-22T10:47:12.081Z,1565.00
2023-05-22T10:48:12.076Z,1562.00
2023-05-22T10:49:12.070Z,1748.00
2023-05-22T10:50:12.125Z,1928.00
2023-05-22T10:51:12.045Z,2005.00
2023-05-22T10:52:12.122Z,2027.00
2023-05-22T10:53:12.055Z,2057.00
2023-05-22T10:54:12.129Z,2044.00
2023-05-22T10:55:12.044Z,2054.00
2023-05-22T10:56:12.022Z,2086.00
2023-05-22T10:57:12.017Z,2040.00
2023-05-22T10:58:12.035Z,1793.00
2023-05-22T10:59:11.994Z,1582.00
2023-05-22T11:00:12.026Z,1252.00
2023-05-22T11:01:12.029Z,1606.00
2023-05-22T11:02:12.060Z,1670.00
2023-05-22T11:03:17.931Z,1545.00
2023-05-22T11:04:13.169Z,1312.00
2023-05-22T11:05:12.089Z,1282.00
2023-05-22T11:06:12.031Z,1325.00
2023-05-22T11:07:12.039Z,1114.00
2023-05-22T11:08:12.034Z,857.00
2023-05-22T11:09:12.013Z,911.00
2023-05-22T11:10:12.094Z,711.00
2023-05-22T11:11:12.035Z,621.00
2023-05-22T11:12:12.012Z,665.00
2023-05-22T11:13:12.067Z,822.00
2023-05-22T11:14:11.985Z,857.00
2023-05-22T11:15:11.983Z,721.00
2023-05-22T11:16:12.045Z,855.00
2023-05-22T11:17:12.139Z,1097.00
2023-05-22T11:19:22.753Z,1235.00
2023-05-22T11:20:13.108Z,1177.00
2023-05-22T11:21:12.063Z,1247.00
2023-05-22T11:22:11.946Z,1355.00
2023-05-22T11:23:12.425Z,1576.00
2023-05-22T11:24:11.934Z,1954.00
2023-05-22T11:25:11.927Z,2209.00
2023-05-22T11:26:12.027Z,2392.00
2023-05-22T11:27:11.938Z,2488.00
2023-05-22T11:28:11.915Z,2521.00
2023-05-22T11:29:11.944Z,2587.00
2023-05-22T11:30:11.999Z,2607.00
2023-05-22T11:31:12.034Z,2617.00
2023-05-22T11:32:11.982Z,2536.00
2023-05-22T11:33:12.094Z,2510.00
2023-05-22T11:34:12.006Z,2181.00
2023-05-22T11:35:12.022Z,2366.00
2023-05-22T11:36:12.038Z,2446.00
2023-05-22T11:37:12.023Z,2480.00
2023-05-22T11:38:12.072Z,2445.00
2023-05-22T11:39:12.042Z,2194.00
2023-05-22T11:40:12.059Z,1951.00
2023-05-22T11:41:12.027Z,1778.00
2023-05-22T11:42:12.126Z,1864.00
2023-05-22T11:43:12.068Z,2143.00
2023-05-22T11:44:12.033Z,2161.00
2023-05-22T11:45:12.110Z,2094.00
2023-05-22T11:46:12.125Z,1756.00
2023-05-22T11:47:12.046Z,1554.00
2023-05-22T11:48:14.646Z,1377.00
2023-05-22T11:49:12.040Z,1247.00
2023-05-22T11:50:12.060Z,1601.00
2023-05-22T11:51:12.053Z,1796.00
2023-05-22T11:52:12.025Z,2009.00
2023-05-22T11:53:12.037Z,2149.00
2023-05-22T11:54:12.010Z,2250.00
2023-05-22T11:55:12.008Z,2257.00
2023-05-22T11:56:12.001Z,2303.00
2023-05-22T11:57:11.989Z,2383.00
2023-05-22T11:58:12.076Z,2413.00
2023-05-22T11:59:11.975Z,2400.00
2023-05-22T12:00:12.089Z,2379.00
2023-05-22T12:01:11.993Z,2415.00
2023-05-22T12:02:11.956Z,2423.00
2023-05-22T12:03:12.117Z,2425.00
2023-05-22T12:04:12.081Z,2454.00
2023-05-22T12:05:11.972Z,2465.00
2023-05-22T12:06:12.655Z,2488.00
2023-05-22T12:07:11.924Z,2495.00
2023-05-22T12:08:11.915Z,2511.00
2023-05-22T12:09:11.917Z,2504.00
2023-05-22T12:10:11.892Z,2497.00
2023-05-22T12:11:11.921Z,2535.00
2023-05-22T12:12:11.889Z,2558.00
2023-05-22T12:13:11.885Z,2548.00
2023-05-22T12:14:12.039Z,2536.00
2023-05-22T12:15:11.869Z,2529.00
2023-05-22T12:16:12.012Z,2557.00
2023-05-22T12:17:11.850Z,2571.00
2023-05-22T12:18:11.897Z,2569.00
2023-05-22T12:19:11.864Z,2556.00